Time;durP1;ratioP1;P1;durP2;ratioP2;P2;SDS_P1;SDS_P2;PMS_P1;PMS_P2;Temp;Humidity;BMP_temperature;BMP_pressure;BME280_temperature;BME280_humidity;BME280_pressure;Samples;Min_cycle;Max_cycle;Signal;HPM_P1;HPM_P2
2021/04/12 00:02:06;;;;;;;;;13.00;12.00;;;;;;;;3529719;39;111833;-73
2021/04/12 00:04:36;;;;;;;;;13.25;12.25;;;;;;;;3528188;39;113668;-73
2021/04/12 00:07:07;;;;;;;;;14.25;12.00;;;;;;;;3527487;39;113925;-74
2021/04/12 00:09:37;;;;;;;;;14.25;12.25;;;;;;;;3528133;39;111852;-72
2021/04/12 00:12:07;;;;;;;;;17.00;15.25;;;;;;;;3527928;39;113387;-73
2021/04/12 00:14:36;;;;;;;;;17.00;14.25;;;;;;;;3527621;39;113974;-73
2021/04/12 00:17:04;;;;;;;;;15.00;13.00;;;;;;;;3530667;39;111911;-73
2021/04/12 00:19:34;;;;;;;;;14.25;12.00;;;;;;;;3527620;39;114145;-72
2021/04/12 00:22:05;;;;;;;;;11.00;11.00;;;;;;;;3527628;39;111833;-73
2021/04/12 00:24:35;;;;;;;;;16.00;14.50;;;;;;;;3527796;39;113340;-72
2021/04/12 00:27:04;;;;;;;;;15.00;14.25;;;;;;;;3527529;39;113996;-74
2021/04/12 00:29:33;;;;;;;;;17.25;12.75;;;;;;;;3528025;39;111792;-72
2021/04/12 00:32:01;;;;;;;;;15.00;13.75;;;;;;;;3529528;39;113662;-73
2021/04/12 00:34:30;;;;;;;;;15.75;15.00;;;;;;;;3527674;39;113987;-73
2021/04/12 00:36:59;;;;;;;;;11.00;11.00;;;;;;;;3529437;39;112036;-73
2021/04/12 00:39:35;;;;;;;;;15.25;12.50;;;;;;;;3530424;39;113578;-73
2021/04/12 00:42:14;;;;;;;;;14.00;12.00;;;;;;;;3528059;39;111993;-73
2021/04/12 00:44:54;;;;;;;;;11.00;11.00;;;;;;;;3528668;39;113422;-72
2021/04/12 00:47:28;;;;;;;;;14.25;12.25;;;;;;;;3528410;39;113902;-72
2021/04/12 00:50:01;;;;;;;;;12.50;11.50;;;;;;;;3529466;39;111780;-71
2021/04/12 00:52:54;;;;;;;;;12.00;11.50;;;;;;;;3528453;39;114106;-73
2021/04/12 00:55:27;;;;;;;;;15.75;12.75;;;;;;;;3510614;39;113779;-73
2021/04/12 00:58:00;;;;;;;;;11.75;11.75;;;;;;;;3528424;39;112031;-73
2021/04/12 01:00:29;;;;;;;;;16.25;12.75;;;;;;;;3529388;39;113663;-71
2021/04/12 01:03:03;;;;;;;;;12.00;10.25;;;;;;;;3530353;39;113813;-73
2021/04/12 01:05:41;;;;;;;;;12.00;10.50;;;;;;;;3527780;39;114174;-72
2021/04/12 01:08:31;;;;;;;;;12.50;12.50;;;;;;;;3527454;39;114008;-73
2021/04/12 01:11:15;;;;;;;;;11.50;11.50;;;;;;;;3519239;39;111982;-72
2021/04/12 01:13:59;;;;;;;;;10.25;10.25;;;;;;;;3528297;39;113179;-72
2021/04/12 01:16:32;;;;;;;;;11.50;11.25;;;;;;;;3527219;39;114227;-72
2021/04/12 01:19:28;;;;;;;;;9.00;9.00;;;;;;;;3529482;39;111933;-72
2021/04/12 01:22:13;;;;;;;;;10.50;9.00;;;;;;;;3529281;39;113608;-73
2021/04/12 01:24:57;;;;;;;;;11.25;10.50;;;;;;;;3527674;39;113892;-74
2021/04/12 01:27:57;;;;;;;;;10.50;9.25;;;;;;;;3530623;39;112032;-72
2021/04/12 01:30:39;;;;;;;;;9.00;8.00;;;;;;;;3528503;39;113927;-72
2021/04/12 01:33:28;;;;;;;;;6.00;6.00;;;;;;;;3527721;39;111833;-72
2021/04/12 01:36:22;;;;;;;;;8.25;8.00;;;;;;;;3528069;39;112369;-72
2021/04/12 01:38:56;;;;;;;;;9.25;7.50;;;;;;;;3528178;39;113773;-72
2021/04/12 01:41:24;;;;;;;;;7.25;7.00;;;;;;;;3528002;39;111944;-71
2021/04/12 01:44:05;;;;;;;;;8.75;6.50;;;;;;;;3529022;39;113329;-72
2021/04/12 01:46:32;;;;;;;;;9.00;9.00;;;;;;;;3527356;39;113106;-72
2021/04/12 01:49:01;;;;;;;;;8.75;7.00;;;;;;;;3531962;39;111917;-73
2021/04/12 01:51:45;;;;;;;;;12.00;8.75;;;;;;;;3526824;39;114102;-72
2021/04/12 01:54:24;;;;;;;;;9.50;8.00;;;;;;;;3527966;39;112203;-71
2021/04/12 01:57:02;;;;;;;;;11.00;9.00;;;;;;;;3528183;39;113836;-72
2021/04/12 01:59:36;;;;;;;;;8.00;8.00;;;;;;;;3526644;39;114119;-72
2021/04/12 02:02:09;;;;;;;;;9.00;9.00;;;;;;;;3527364;39;111774;-72
2021/04/12 02:04:41;;;;;;;;;9.75;7.25;;;;;;;;3527935;39;113293;-72
2021/04/12 02:07:18;;;;;;;;;9.00;7.75;;;;;;;;3525057;39;112884;-72
2021/04/12 02:09:53;;;;;;;;;9.50;6.25;;;;;;;;3528303;39;111777;-73
2021/04/12 02:12:23;;;;;;;;;11.50;7.25;;;;;;;;3530067;39;114462;-73
2021/04/12 02:14:56;;;;;;;;;6.00;6.00;;;;;;;;3528592;39;113166;-73
2021/04/12 02:17:30;;;;;;;;;7.50;6.00;;;;;;;;3527782;39;113250;-72
2021/04/12 02:20:06;;;;;;;;;7.25;5.50;;;;;;;;3528554;39;114120;-73
2021/04/12 02:22:48;;;;;;;;;4.75;4.75;;;;;;;;3527527;39;111917;-74
2021/04/12 02:25:21;;;;;;;;;5.00;5.00;;;;;;;;3528482;39;113663;-73
2021/04/12 02:27:51;;;;;;;;;5.50;4.50;;;;;;;;3527544;39;114080;-72
2021/04/12 02:30:23;;;;;;;;;6.00;4.50;;;;;;;;3526296;39;112868;-73
2021/04/12 02:32:55;;;;;;;;;4.25;4.25;;;;;;;;3528147;39;113333;-72
2021/04/12 02:35:30;;;;;;;;;5.50;4.50;;;;;;;;3530698;39;114023;-72
2021/04/12 02:38:03;;;;;;;;;3.25;3.25;;;;;;;;3527467;39;113338;-73
2021/04/12 02:40:44;;;;;;;;;5.00;4.00;;;;;;;;3526775;39;114042;-73
2021/04/12 02:43:17;;;;;;;;;3.50;3.50;;;;;;;;3527406;39;112244;-73
2021/04/12 02:45:57;;;;;;;;;3.75;3.75;;;;;;;;3528260;39;113588;-73
2021/04/12 02:48:30;;;;;;;;;6.25;4.00;;;;;;;;3527915;39;113957;-73
2021/04/12 02:51:04;;;;;;;;;7.00;4.00;;;;;;;;3527450;39;112202;-73
2021/04/12 02:53:50;;;;;;;;;3.00;3.00;;;;;;;;3527310;39;113838;-73
2021/04/12 02:56:34;;;;;;;;;8.00;4.00;;;;;;;;3526613;39;113981;-72
2021/04/12 02:59:15;;;;;;;;;4.00;4.00;;;;;;;;3529810;39;111876;-74
2021/04/12 03:02:04;;;;;;;;;4.50;4.50;;;;;;;;3527256;39;113957;-73
2021/04/12 03:04:41;;;;;;;;;4.75;4.75;;;;;;;;3528339;39;111919;-74
2021/04/12 03:07:18;;;;;;;;;4.00;4.00;;;;;;;;3528790;39;113428;-73
2021/04/12 03:09:59;;;;;;;;;5.00;5.00;;;;;;;;3528907;39;115382;-74
2021/04/12 03:12:41;;;;;;;;;7.00;5.75;;;;;;;;3528633;39;112257;-75
2021/04/12 03:15:19;;;;;;;;;6.00;6.00;;;;;;;;3526565;39;113666;-74
2021/04/12 03:17:56;;;;;;;;;6.25;6.25;;;;;;;;3528705;39;113982;-74
2021/04/12 03:20:27;;;;;;;;;4.75;4.75;;;;;;;;3529609;39;112027;-73
2021/04/12 03:23:05;;;;;;;;;5.25;4.00;;;;;;;;3531033;39;113398;-73
2021/04/12 03:25:34;;;;;;;;;5.00;5.00;;;;;;;;3528224;39;111946;-73
2021/04/12 03:28:07;;;;;;;;;8.75;7.50;;;;;;;;3528386;39;113376;-73
2021/04/12 03:30:43;;;;;;;;;7.50;6.50;;;;;;;;3528084;39;115016;-74
2021/04/12 03:33:19;;;;;;;;;8.00;8.00;;;;;;;;3529102;39;111999;-74
2021/04/12 03:35:50;;;;;;;;;8.25;8.25;;;;;;;;3529195;39;113309;-73
2021/04/12 03:38:25;;;;;;;;;9.00;6.75;;;;;;;;3528266;39;114136;-72
2021/04/12 03:41:07;;;;;;;;;9.00;8.00;;;;;;;;3529520;39;111886;-73
2021/04/12 03:43:45;;;;;;;;;6.25;6.25;;;;;;;;3528277;39;113217;-73
2021/04/12 03:46:32;;;;;;;;;9.00;6.50;;;;;;;;3531192;39;114341;-72
2021/04/12 03:49:19;;;;;;;;;9.00;8.00;;;;;;;;3517223;39;113860;-74
2021/04/12 03:51:54;;;;;;;;;8.75;8.75;;;;;;;;3528676;39;114521;-73
2021/04/12 03:54:28;;;;;;;;;8.75;8.00;;;;;;;;3528437;39;112140;-72
2021/04/12 03:57:07;;;;;;;;;7.75;7.75;;;;;;;;3529782;39;113614;-73
2021/04/12 03:59:42;;;;;;;;;8.50;8.25;;;;;;;;3527927;39;113772;-73
2021/04/12 04:02:26;;;;;;;;;8.00;5.50;;;;;;;;3529846;39;112325;-77
2021/04/12 04:05:00;;;;;;;;;9.50;8.00;;;;;;;;3528498;39;113329;-75
2021/04/12 04:07:54;;;;;;;;;5.00;5.00;;;;;;;;3532273;39;114049;-78
2021/04/12 04:10:46;;;;;;;;;7.00;7.00;;;;;;;;3529881;39;113615;-78
2021/04/12 04:13:25;;;;;;;;;9.75;8.00;;;;;;;;3529349;39;114477;-74
2021/04/12 04:16:11;;;;;;;;;5.00;5.00;;;;;;;;3528746;39;112561;-75
2021/04/12 04:18:40;;;;;;;;;6.25;6.25;;;;;;;;3528363;39;113358;-73
2021/04/12 04:21:39;;;;;;;;;8.00;8.00;;;;;;;;3528165;39;114134;-71
2021/04/12 04:24:24;;;;;;;;;5.00;5.00;;;;;;;;3528533;39;112063;-73
2021/04/12 04:27:04;;;;;;;;;5.00;5.00;;;;;;;;3528604;39;113300;-74
2021/04/12 04:29:48;;;;;;;;;4.25;4.25;;;;;;;;3525644;39;113289;-73
2021/04/12 04:32:25;;;;;;;;;7.50;6.00;;;;;;;;3531035;39;112532;-73
2021/04/12 04:34:57;;;;;;;;;8.50;6.00;;;;;;;;3529024;39;114342;-73
2021/04/12 04:37:35;;;;;;;;;5.75;5.00;;;;;;;;3527919;39;111923;-74
2021/04/12 04:40:20;;;;;;;;;7.25;5.00;;;;;;;;3528063;39;113735;-73
2021/04/12 04:42:51;;;;;;;;;6.25;4.00;;;;;;;;3528025;39;113895;-74
2021/04/12 04:45:35;;;;;;;;;7.50;5.50;;;;;;;;3528805;39;112327;-73
2021/04/12 04:48:19;;;;;;;;;6.00;6.00;;;;;;;;3528075;39;113519;-74
2021/04/12 04:50:59;;;;;;;;;7.00;7.00;;;;;;;;3528335;39;114033;-73
2021/04/12 04:53:37;;;;;;;;;4.00;4.00;;;;;;;;3512677;39;111960;-74
2021/04/12 04:56:09;;;;;;;;;10.00;8.25;;;;;;;;3530140;39;113744;-74
2021/04/12 04:58:47;;;;;;;;;4.00;4.00;;;;;;;;3529304;39;111892;-73
2021/04/12 05:01:18;;;;;;;;;4.00;3.25;;;;;;;;3528716;39;113480;-75
2021/04/12 05:04:01;;;;;;;;;6.50;4.00;;;;;;;;3528123;39;114387;-74
2021/04/12 05:06:57;;;;;;;;;4.00;4.00;;;;;;;;3528087;39;111851;-74
2021/04/12 05:09:31;;;;;;;;;3.50;3.50;;;;;;;;3529544;39;113481;-75
2021/04/12 05:12:15;;;;;;;;;2.50;2.50;;;;;;;;3527797;39;114900;-75
2021/04/12 05:15:01;;;;;;;;;3.00;3.00;;;;;;;;3523670;39;111837;-74
2021/04/12 05:17:39;;;;;;;;;3.00;2.00;;;;;;;;3528537;39;113703;-74
2021/04/12 05:20:25;;;;;;;;;3.50;3.50;;;;;;;;3526683;39;113288;-78
2021/04/12 05:23:03;;;;;;;;;4.00;4.00;;;;;;;;3530359;39;113342;-79
2021/04/12 05:25:50;;;;;;;;;4.00;4.00;;;;;;;;3528297;39;114065;-76
2021/04/12 05:28:25;;;;;;;;;13.25;13.25;;;;;;;;3529771;39;112152;-73
2021/04/12 05:31:10;;;;;;;;;7.00;4.00;;;;;;;;3528643;39;113520;-75
2021/04/12 05:33:48;;;;;;;;;5.50;5.00;;;;;;;;3528099;39;113555;-74
2021/04/12 05:36:42;;;;;;;;;5.00;3.50;;;;;;;;3528589;39;111825;-73
2021/04/12 05:39:26;;;;;;;;;8.00;7.25;;;;;;;;3527562;39;113341;-75
2021/04/12 05:42:05;;;;;;;;;11.00;9.00;;;;;;;;3524927;39;114018;-74
2021/04/12 05:44:39;;;;;;;;;5.25;5.25;;;;;;;;3530332;39;113611;-78
2021/04/12 05:47:09;;;;;;;;;9.50;8.00;;;;;;;;3527444;39;113917;-78
2021/04/12 05:49:54;;;;;;;;;8.25;8.25;;;;;;;;3529099;39;113151;-72
2021/04/12 05:52:33;;;;;;;;;8.75;8.00;;;;;;;;3528679;39;113315;-75
2021/04/12 05:55:16;;;;;;;;;8.25;8.00;;;;;;;;3527318;39;114534;-77
2021/04/12 05:57:58;;;;;;;;;9.50;8.00;;;;;;;;3523165;39;112912;-73
2021/04/12 06:00:26;;;;;;;;;8.00;8.00;;;;;;;;3527771;39;113250;-74
2021/04/12 06:04:13;;;;;;;;;10.75;7.50;;;;;;;;3571567;39;112803;-80
2021/04/12 06:06:57;;;;;;;;;9.25;8.25;;;;;;;;3565102;39;114437;-69
2021/04/12 06:09:35;;;;;;;;;10.50;8.50;;;;;;;;3564760;39;112003;-72
2021/04/12 06:12:22;;;;;;;;;9.50;9.00;;;;;;;;3565773;39;113315;-73
2021/04/12 06:15:25;;;;;;;;;8.50;8.25;;;;;;;;3538525;39;113735;-71
2021/04/12 06:18:09;;;;;;;;;8.50;8.50;;;;;;;;3566786;39;112063;-72
2021/04/12 06:20:44;;;;;;;;;10.00;10.00;;;;;;;;3552676;39;113410;-71
2021/04/12 06:23:34;;;;;;;;;9.50;9.00;;;;;;;;3561551;39;114437;-70
2021/04/12 06:26:13;;;;;;;;;11.00;11.00;;;;;;;;3567900;39;112246;-72
2021/04/12 06:28:56;;;;;;;;;8.00;8.00;;;;;;;;3565477;39;114283;-71
2021/04/12 06:31:46;;;;;;;;;9.50;9.50;;;;;;;;3551984;39;112309;-71
2021/04/12 06:34:28;;;;;;;;;9.50;9.00;;;;;;;;3536495;39;113201;-70
2021/04/12 06:37:01;;;;;;;;;10.50;8.25;;;;;;;;3566219;39;113764;-72
2021/04/12 06:39:35;;;;;;;;;10.25;9.25;;;;;;;;3565414;39;113032;-71
2021/04/12 06:42:16;;;;;;;;;14.50;9.75;;;;;;;;3564303;39;113174;-71
2021/04/12 06:45:00;;;;;;;;;14.75;12.00;;;;;;;;3564976;39;115004;-70
2021/04/12 06:47:44;;;;;;;;;10.25;10.00;;;;;;;;3564598;39;112363;-69
2021/04/12 06:50:28;;;;;;;;;11.50;10.00;;;;;;;;3567346;39;113403;-70
2021/04/12 06:53:12;;;;;;;;;14.25;13.75;;;;;;;;3564720;39;111909;-75
2021/04/12 06:56:03;;;;;;;;;11.75;11.00;;;;;;;;3561688;39;113057;-72
2021/04/12 06:58:48;;;;;;;;;14.00;11.00;;;;;;;;3566636;39;113921;-74
2021/04/12 07:01:29;;;;;;;;;12.50;12.00;;;;;;;;3565734;39;112115;-73
2021/04/12 07:04:14;;;;;;;;;13.00;11.00;;;;;;;;3565461;39;113275;-73
2021/04/12 07:06:43;;;;;;;;;11.75;9.75;;;;;;;;3564948;39;114017;-73
2021/04/12 07:09:27;;;;;;;;;9.00;8.25;;;;;;;;3566466;39;111981;-73
2021/04/12 07:12:09;;;;;;;;;9.00;7.00;;;;;;;;3564970;39;113311;-71
2021/04/12 07:14:55;;;;;;;;;10.00;10.00;;;;;;;;3562292;39;114475;-72
2021/04/12 07:17:48;;;;;;;;;10.75;10.75;;;;;;;;3558678;39;113754;-75
2021/04/12 07:20:34;;;;;;;;;10.00;10.00;;;;;;;;3557995;39;114014;-71
2021/04/12 07:23:28;;;;;;;;;9.75;9.75;;;;;;;;3545539;39;112274;-71
2021/04/12 07:26:18;;;;;;;;;12.00;10.25;;;;;;;;3558579;39;113212;-71
2021/04/12 07:29:02;;;;;;;;;11.50;10.25;;;;;;;;3551788;39;113978;-70
2021/04/12 07:31:42;;;;;;;;;12.00;10.00;;;;;;;;3557169;39;112180;-70
2021/04/12 07:34:23;;;;;;;;;11.00;8.50;;;;;;;;3557442;39;113520;-71
2021/04/12 07:37:07;;;;;;;;;15.25;12.00;;;;;;;;3557729;39;114651;-70
2021/04/12 07:40:11;;;;;;;;;10.00;10.00;;;;;;;;3560234;39;112310;-72
2021/04/12 07:42:56;;;;;;;;;11.50;10.00;;;;;;;;3557434;39;113928;-71
2021/04/12 07:45:45;;;;;;;;;11.50;9.00;;;;;;;;3557177;39;112056;-71
2021/04/12 07:48:29;;;;;;;;;10.75;8.75;;;;;;;;3557816;39;113386;-69
2021/04/12 07:51:16;;;;;;;;;9.75;8.75;;;;;;;;3557422;39;113925;-71
2021/04/12 07:54:00;;;;;;;;;10.75;8.00;;;;;;;;3558000;39;112171;-69
2021/04/12 07:56:45;;;;;;;;;6.00;5.00;;;;;;;;3557385;39;113423;-70
2021/04/12 08:01:59;;;;;;;;;5.75;5.25;;;;;;;;3528556;39;113815;-66
2021/04/12 08:04:46;;;;;;;;;5.75;5.00;;;;;;;;3532808;39;113188;-66
2021/04/12 08:07:27;;;;;;;;;4.75;4.00;;;;;;;;3527712;39;111864;-66
2021/04/12 08:10:11;;;;;;;;;3.75;3.75;;;;;;;;3518791;39;113310;-66
2021/04/12 08:12:56;;;;;;;;;3.00;3.00;;;;;;;;3526330;39;113019;-67
2021/04/12 08:15:31;;;;;;;;;4.50;4.50;;;;;;;;3528295;39;111906;-66
2021/04/12 08:18:12;;;;;;;;;5.25;4.25;;;;;;;;3527635;39;113342;-66
2021/04/12 08:20:54;;;;;;;;;3.25;3.25;;;;;;;;3527256;39;114114;-66
2021/04/12 08:23:46;;;;;;;;;3.50;3.50;;;;;;;;3527720;39;112054;-66
2021/04/12 08:26:44;;;;;;;;;4.75;4.75;;;;;;;;3525058;39;112648;-66
2021/04/12 08:29:23;;;;;;;;;4.75;4.75;;;;;;;;3529725;39;113192;-66
2021/04/12 08:32:07;;;;;;;;;7.00;5.50;;;;;;;;3528377;39;113156;-66
2021/04/12 08:34:51;;;;;;;;;3.00;3.00;;;;;;;;3529059;39;114054;-69
2021/04/12 08:37:36;;;;;;;;;5.00;5.00;;;;;;;;3528950;39;112345;-70
2021/04/12 08:40:26;;;;;;;;;4.00;4.00;;;;;;;;3529263;39;113250;-69
2021/04/12 08:43:13;;;;;;;;;3.75;3.75;;;;;;;;3528980;39;113931;-68
2021/04/12 08:45:51;;;;;;;;;5.00;5.00;;;;;;;;3527629;39;113614;-69
2021/04/12 08:48:38;;;;;;;;;5.75;5.00;;;;;;;;3527843;39;113135;-68
2021/04/12 08:51:12;;;;;;;;;4.00;4.00;;;;;;;;3528757;39;113863;-70
2021/04/12 08:53:51;;;;;;;;;3.75;3.75;;;;;;;;3527427;39;113153;-69
2021/04/12 08:56:23;;;;;;;;;4.25;4.25;;;;;;;;3527260;39;114389;-68
2021/04/12 08:59:10;;;;;;;;;6.00;6.00;;;;;;;;3528165;39;112212;-69
2021/04/12 09:01:54;;;;;;;;;6.00;6.00;;;;;;;;3527581;39;114098;-68
2021/04/12 09:04:33;;;;;;;;;5.50;5.50;;;;;;;;3527067;39;113770;-69
2021/04/12 09:07:20;;;;;;;;;5.00;5.00;;;;;;;;3528663;39;112013;-69
2021/04/12 09:10:04;;;;;;;;;5.50;4.25;;;;;;;;3529098;39;113265;-70
2021/04/12 09:12:46;;;;;;;;;6.00;6.00;;;;;;;;3526978;39;114656;-68
2021/04/12 09:15:39;;;;;;;;;6.00;6.00;;;;;;;;3529574;39;112236;-68
2021/04/12 09:18:20;;;;;;;;;7.00;5.50;;;;;;;;3526663;39;114325;-68
2021/04/12 09:20:54;;;;;;;;;8.00;7.75;;;;;;;;3527094;39;111819;-70
2021/04/12 09:23:38;;;;;;;;;9.50;7.00;;;;;;;;3527614;39;113890;-69
2021/04/12 09:26:23;;;;;;;;;5.25;5.25;;;;;;;;3526998;39;113137;-68
2021/04/12 09:29:04;;;;;;;;;5.00;5.00;;;;;;;;3530281;39;113089;-69
2021/04/12 09:31:42;;;;;;;;;6.25;6.25;;;;;;;;3517222;39;113135;-70
2021/04/12 09:34:24;;;;;;;;;8.25;7.50;;;;;;;;3528702;39;113566;-68
2021/04/12 09:36:58;;;;;;;;;9.00;8.50;;;;;;;;3528643;39;112407;-70
2021/04/12 09:39:29;;;;;;;;;10.75;6.00;;;;;;;;3529360;39;113341;-67
2021/04/12 09:42:09;;;;;;;;;8.25;6.75;;;;;;;;3528590;39;111879;-70
2021/04/12 09:44:54;;;;;;;;;6.50;6.50;;;;;;;;3527273;39;111854;-70
2021/04/12 09:47:35;;;;;;;;;5.50;5.50;;;;;;;;3526980;39;114851;-72
2021/04/12 09:50:25;;;;;;;;;8.50;6.00;;;;;;;;3527198;39;111849;-70
2021/04/12 09:52:56;;;;;;;;;5.00;5.00;;;;;;;;3528868;39;113467;-68
2021/04/12 09:55:40;;;;;;;;;7.50;5.25;;;;;;;;3527329;39;114307;-69
2021/04/12 09:58:25;;;;;;;;;8.25;6.00;;;;;;;;3528753;39;112127;-67
2021/04/12 10:01:00;;;;;;;;;6.00;6.00;;;;;;;;3528588;39;113257;-69
2021/04/12 10:03:47;;;;;;;;;9.75;7.00;;;;;;;;3528851;39;113818;-72
2021/04/12 10:06:27;;;;;;;;;5.75;5.75;;;;;;;;3526675;39;113234;-73
2021/04/12 10:09:14;;;;;;;;;5.50;5.50;;;;;;;;3529530;39;114196;-72
2021/04/12 10:11:45;;;;;;;;;8.00;6.00;;;;;;;;3526852;39;112349;-76
2021/04/12 10:14:15;;;;;;;;;8.75;6.50;;;;;;;;3528009;39;113249;-69
2021/04/12 10:16:45;;;;;;;;;8.50;6.75;;;;;;;;3526532;39;113864;-70
2021/04/12 10:19:13;;;;;;;;;8.00;7.25;;;;;;;;3527841;39;112012;-72
2021/04/12 10:21:50;;;;;;;;;9.50;7.00;;;;;;;;3527068;39;113385;-68
2021/04/12 10:24:20;;;;;;;;;10.25;7.75;;;;;;;;3525380;39;114014;-69
2021/04/12 10:26:47;;;;;;;;;7.00;7.00;;;;;;;;3531526;39;112161;-70
2021/04/12 10:29:16;;;;;;;;;6.00;6.00;;;;;;;;3529005;39;114096;-66
2021/04/12 10:31:51;;;;;;;;;7.00;6.00;;;;;;;;3525270;39;112076;-66
2021/04/12 10:34:20;;;;;;;;;9.00;7.00;;;;;;;;3527355;39;113241;-66
2021/04/12 10:36:49;;;;;;;;;8.50;6.75;;;;;;;;3526930;39;114040;-67
2021/04/12 10:39:22;;;;;;;;;8.25;8.00;;;;;;;;3527260;39;111843;-66
2021/04/12 10:41:53;;;;;;;;;9.00;8.75;;;;;;;;3527826;39;113661;-66
2021/04/12 10:44:24;;;;;;;;;9.00;9.00;;;;;;;;3526487;39;113780;-65
2021/04/12 10:46:56;;;;;;;;;10.75;9.00;;;;;;;;3530522;39;111747;-66
2021/04/12 10:49:25;;;;;;;;;10.00;10.00;;;;;;;;3526605;39;114762;-68
2021/04/12 10:51:57;;;;;;;;;7.25;7.25;;;;;;;;3529230;39;111799;-67
2021/04/12 10:54:34;;;;;;;;;8.00;8.00;;;;;;;;3529215;39;113404;-66
2021/04/12 10:57:04;;;;;;;;;7.50;7.50;;;;;;;;3528004;39;113864;-67
2021/04/12 10:59:52;;;;;;;;;4.00;4.00;;;;;;;;3527361;39;112212;-67
2021/04/12 11:02:21;;;;;;;;;5.00;5.00;;;;;;;;3529621;39;113251;-67
2021/04/12 11:04:53;;;;;;;;;4.50;3.00;;;;;;;;3528516;39;113643;-66
2021/04/12 11:07:21;;;;;;;;;5.00;5.00;;;;;;;;3527975;39;111775;-69
2021/04/12 11:09:57;;;;;;;;;2.75;2.75;;;;;;;;3533240;39;113890;-69
2021/04/12 11:12:41;;;;;;;;;3.50;3.00;;;;;;;;3528342;39;113283;-70
2021/04/12 11:15:13;;;;;;;;;4.75;4.25;;;;;;;;3527950;39;113288;-70
2021/04/12 11:17:43;;;;;;;;;4.00;3.00;;;;;;;;3528745;39;113971;-68
2021/04/12 11:20:12;;;;;;;;;2.75;2.75;;;;;;;;3528204;39;112139;-69
2021/04/12 11:22:55;;;;;;;;;2.00;2.00;;;;;;;;3528998;39;113716;-69
2021/04/12 11:25:23;;;;;;;;;2.50;2.50;;;;;;;;3528335;39;113809;-68
2021/04/12 11:27:56;;;;;;;;;2.00;2.00;;;;;;;;3528488;39;112042;-70
2021/04/12 11:30:25;;;;;;;;;2.75;2.75;;;;;;;;3529282;39;113340;-69
2021/04/12 11:32:55;;;;;;;;;3.25;2.00;;;;;;;;3530351;39;114057;-68
2021/04/12 11:35:28;;;;;;;;;2.00;2.00;;;;;;;;3528253;39;112657;-68
2021/04/12 11:37:59;;;;;;;;;3.00;3.00;;;;;;;;3527336;39;113508;-68
2021/04/12 11:40:29;;;;;;;;;3.00;3.00;;;;;;;;3528912;39;112030;-68
2021/04/12 11:42:58;;;;;;;;;6.00;3.75;;;;;;;;3527718;39;113353;-68
2021/04/12 11:45:26;;;;;;;;;2.00;2.00;;;;;;;;3528265;39;113988;-68
2021/04/12 11:47:58;;;;;;;;;4.75;4.75;;;;;;;;3528044;39;112064;-68
2021/04/12 11:50:30;;;;;;;;;5.00;5.00;;;;;;;;3528866;39;113683;-69
2021/04/12 11:52:59;;;;;;;;;3.00;3.00;;;;;;;;3527103;39;114095;-69
2021/04/12 11:55:28;;;;;;;;;5.50;4.00;;;;;;;;3531297;39;111969;-69
2021/04/12 11:58:00;;;;;;;;;4.00;3.00;;;;;;;;3526896;39;114071;-68
2021/04/12 12:00:29;;;;;;;;;3.50;3.00;;;;;;;;3527523;39;112112;-69
2021/04/12 12:03:03;;;;;;;;;3.00;3.00;;;;;;;;3529072;39;113408;-69
2021/04/12 12:05:32;;;;;;;;;3.25;3.25;;;;;;;;3526974;39;114321;-69
2021/04/12 12:08:00;;;;;;;;;3.50;3.50;;;;;;;;3527634;39;112183;-70
2021/04/12 12:10:31;;;;;;;;;4.00;3.25;;;;;;;;3527326;39;113284;-69
2021/04/12 12:12:58;;;;;;;;;4.25;4.00;;;;;;;;3527031;39;113968;-67
2021/04/12 12:15:32;;;;;;;;;5.00;4.25;;;;;;;;3528837;39;111942;-68
2021/04/12 12:18:03;;;;;;;;;5.75;5.75;;;;;;;;3529748;39;113391;-68
2021/04/12 12:20:35;;;;;;;;;3.75;3.00;;;;;;;;3527318;39;112327;-67
2021/04/12 12:23:09;;;;;;;;;4.00;4.00;;;;;;;;3527313;39;115610;-75
2021/04/12 12:25:38;;;;;;;;;5.00;5.00;;;;;;;;3526249;39;113882;-73
2021/04/12 12:28:09;;;;;;;;;5.00;5.00;;;;;;;;3526906;39;112027;-73
2021/04/12 12:30:39;;;;;;;;;4.00;4.00;;;;;;;;3527617;39;113734;-73
2021/04/12 12:33:09;;;;;;;;;4.00;4.00;;;;;;;;3527870;39;113650;-75
2021/04/12 12:35:44;;;;;;;;;4.50;4.50;;;;;;;;3527541;39;111791;-75
2021/04/12 12:38:29;;;;;;;;;6.00;5.00;;;;;;;;3528005;39;113943;-72
2021/04/12 12:40:57;;;;;;;;;5.00;5.00;;;;;;;;3531022;39;114383;-75
2021/04/12 12:43:26;;;;;;;;;4.00;4.00;;;;;;;;3527227;39;113044;-74
2021/04/12 12:45:53;;;;;;;;;5.75;5.75;;;;;;;;3528911;39;114427;-75
2021/04/12 12:48:21;;;;;;;;;5.00;4.50;;;;;;;;3528155;39;111833;-73
2021/04/12 12:50:50;;;;;;;;;7.75;7.75;;;;;;;;3531166;39;113947;-73
2021/04/12 12:53:20;;;;;;;;;6.25;6.25;;;;;;;;3527042;39;114118;-71
2021/04/12 12:55:49;;;;;;;;;7.25;6.50;;;;;;;;3528470;39;111984;-74
2021/04/12 12:58:19;;;;;;;;;7.25;6.00;;;;;;;;3528107;39;113834;-74
2021/04/12 13:00:48;;;;;;;;;6.75;6.00;;;;;;;;3530617;39;114068;-75
2021/04/12 13:03:15;;;;;;;;;6.00;5.00;;;;;;;;3527923;39;113743;-75
2021/04/12 13:05:43;;;;;;;;;6.00;5.25;;;;;;;;3527407;39;113844;-74
2021/04/12 13:08:10;;;;;;;;;8.50;6.50;;;;;;;;3528391;39;111863;-74
2021/04/12 13:10:38;;;;;;;;;5.25;5.25;;;;;;;;3527876;39;113365;-76
2021/04/12 13:13:13;;;;;;;;;6.00;6.00;;;;;;;;3527816;39;114290;-76
2021/04/12 13:15:40;;;;;;;;;8.50;6.00;;;;;;;;3527677;39;111832;-76
2021/04/12 13:18:08;;;;;;;;;8.50;7.50;;;;;;;;3528403;39;113288;-73
2021/04/12 13:20:38;;;;;;;;;8.25;7.00;;;;;;;;3527280;39;113939;-75
2021/04/12 13:23:07;;;;;;;;;6.00;5.00;;;;;;;;3531209;39;112353;-74
2021/04/12 13:25:35;;;;;;;;;11.00;6.00;;;;;;;;3525926;39;112797;-77
2021/04/12 13:28:08;;;;;;;;;6.75;6.00;;;;;;;;3529326;39;112276;-74
2021/04/12 13:30:35;;;;;;;;;7.75;6.00;;;;;;;;3527082;39;113047;-75
2021/04/12 13:33:05;;;;;;;;;5.75;5.75;;;;;;;;3528104;39;113517;-78
2021/04/12 13:35:34;;;;;;;;;9.00;6.25;;;;;;;;3527147;39;112250;-74
2021/04/12 13:38:03;;;;;;;;;6.00;6.00;;;;;;;;3527037;39;113205;-73
2021/04/12 13:40:31;;;;;;;;;5.25;5.25;;;;;;;;3526732;39;113948;-73
2021/04/12 13:43:01;;;;;;;;;7.00;6.00;;;;;;;;3526642;39;113281;-74
2021/04/12 13:45:29;;;;;;;;;7.50;7.50;;;;;;;;3529305;39;113800;-74
2021/04/12 13:47:57;;;;;;;;;8.75;7.00;;;;;;;;3528558;39;112624;-74
2021/04/12 13:50:27;;;;;;;;;10.00;9.00;;;;;;;;3526944;39;113595;-74
2021/04/12 13:52:56;;;;;;;;;6.00;5.50;;;;;;;;3528006;39;113889;-74
2021/04/12 13:55:26;;;;;;;;;8.25;7.00;;;;;;;;3528698;39;113338;-75
2021/04/12 13:57:55;;;;;;;;;10.50;8.00;;;;;;;;3529047;39;113280;-82
2021/04/12 14:00:26;;;;;;;;;9.50;7.50;;;;;;;;3527004;39;114813;-73
2021/04/12 14:02:55;;;;;;;;;10.00;9.00;;;;;;;;3528304;39;112000;-75
2021/04/12 14:05:24;;;;;;;;;11.25;9.25;;;;;;;;3527274;39;113425;-77
2021/04/12 14:07:54;;;;;;;;;9.75;9.00;;;;;;;;3530485;39;113961;-77
2021/04/12 14:10:23;;;;;;;;;9.50;9.25;;;;;;;;3527036;39;113733;-75
2021/04/12 14:12:55;;;;;;;;;7.25;6.50;;;;;;;;3527541;39;114986;-77
2021/04/12 14:15:28;;;;;;;;;12.75;8.50;;;;;;;;3527236;39;111845;-74
2021/04/12 14:17:59;;;;;;;;;10.75;9.75;;;;;;;;3528520;39;113714;-75
2021/04/12 14:20:29;;;;;;;;;6.75;6.75;;;;;;;;3526600;39;113862;-74
2021/04/12 14:22:59;;;;;;;;;10.50;9.00;;;;;;;;3528755;39;111961;-74
2021/04/12 14:25:28;;;;;;;;;7.25;7.25;;;;;;;;3527955;39;112676;-74
2021/04/12 14:28:05;;;;;;;;;11.50;7.25;;;;;;;;3529428;39;114023;-76
2021/04/12 14:30:32;;;;;;;;;10.50;9.00;;;;;;;;3531064;39;111944;-74
2021/04/12 14:33:00;;;;;;;;;6.50;6.50;;;;;;;;3527609;39;113988;-77
2021/04/12 14:35:28;;;;;;;;;10.75;9.50;;;;;;;;3529812;39;112194;-77
2021/04/12 14:38:04;;;;;;;;;8.25;7.25;;;;;;;;3528492;39;113373;-76
2021/04/12 14:40:31;;;;;;;;;8.50;8.00;;;;;;;;3527739;39;114035;-76
2021/04/12 14:43:00;;;;;;;;;2.00;2.00;;;;;;;;3528136;39;112028;-75
2021/04/12 14:45:28;;;;;;;;;1.00;1.00;;;;;;;;3529824;39;113290;-76
2021/04/12 14:48:00;;;;;;;;;1.00;1.00;;;;;;;;3528468;39;113968;-81
2021/04/12 14:50:28;;;;;;;;;2.00;0.00;;;;;;;;3530081;39;112092;-79
2021/04/12 14:52:58;;;;;;;;;0.25;0.00;;;;;;;;3530776;39;113475;-75
2021/04/12 14:55:28;;;;;;;;;3.00;1.00;;;;;;;;3529372;39;112005;-77
2021/04/12 14:58:06;;;;;;;;;2.75;1.25;;;;;;;;3528086;39;114320;-76
2021/04/12 15:00:35;;;;;;;;;1.00;1.00;;;;;;;;3527709;39;112542;-75
2021/04/12 15:03:04;;;;;;;;;1.00;1.00;;;;;;;;3529602;39;111902;-76
2021/04/12 15:05:37;;;;;;;;;1.00;1.00;;;;;;;;3527742;39;113230;-74
2021/04/12 15:08:09;;;;;;;;;1.00;1.00;;;;;;;;3529014;39;114001;-73
2021/04/12 15:10:37;;;;;;;;;2.00;1.00;;;;;;;;3528163;39;112228;-72
2021/04/12 15:13:05;;;;;;;;;1.00;1.00;;;;;;;;3531677;39;113251;-73
2021/04/12 15:15:34;;;;;;;;;2.00;2.00;;;;;;;;3527965;39;111795;-72
2021/04/12 15:18:06;;;;;;;;;0.75;0.00;;;;;;;;3527844;39;113694;-72
2021/04/12 15:20:35;;;;;;;;;1.00;1.00;;;;;;;;3527430;39;113257;-71
2021/04/12 15:23:02;;;;;;;;;2.00;1.00;;;;;;;;3529057;39;111910;-72
2021/04/12 15:25:30;;;;;;;;;2.00;2.00;;;;;;;;3527780;39;113323;-73